sensor_id;sensor_type;location;lat;lon;timestamp;pressure;altitude;pressure_sealevel;temperature
66403;BMP180;53212;52.112;5.144;2023-04-01T00:00:53;99005.40;;;10.20
66403;BMP180;53212;52.112;5.144;2023-04-01T00:03:20;99010.20;;;10.20
66403;BMP180;53212;52.112;5.144;2023-04-01T00:05:47;99008.40;;;10.20
66403;BMP180;53212;52.112;5.144;2023-04-01T00:08:12;99010.60;;;10.20
66403;BMP180;53212;52.112;5.144;2023-04-01T00:10:38;99010.40;;;10.20
66403;BMP180;53212;52.112;5.144;2023-04-01T00:13:04;99011.40;;;10.18
66403;BMP180;53212;52.112;5.144;2023-04-01T00:15:29;99017.80;;;10.10
66403;BMP180;53212;52.112;5.144;2023-04-01T00:17:55;99017.80;;;10.10
66403;BMP180;53212;52.112;5.144;2023-04-01T00:20:21;99018.40;;;10.10
66403;BMP180;53212;52.112;5.144;2023-04-01T00:22:46;99019.20;;;10.10
66403;BMP180;53212;52.112;5.144;2023-04-01T00:25:12;99021.40;;;10.10
66403;BMP180;53212;52.112;5.144;2023-04-01T00:27:38;99017.00;;;10.10
66403;BMP180;53212;52.112;5.144;2023-04-01T00:30:04;99020.20;;;10.00
66403;BMP180;53212;52.112;5.144;2023-04-01T00:32:30;99024.80;;;9.98
66403;BMP180;53212;52.112;5.144;2023-04-01T00:34:56;99025.40;;;9.94
66403;BMP180;53212;52.112;5.144;2023-04-01T00:37:24;99028.40;;;9.90
66403;BMP180;53212;52.112;5.144;2023-04-01T00:39:49;99027.40;;;9.90
66403;BMP180;53212;52.112;5.144;2023-04-01T00:42:15;99030.20;;;9.90
66403;BMP180;53212;52.112;5.144;2023-04-01T00:44:41;99030.40;;;9.90
66403;BMP180;53212;52.112;5.144;2023-04-01T00:47:07;99035.00;;;9.90
66403;BMP180;53212;52.112;5.144;2023-04-01T00:49:37;99030.40;;;9.90
66403;BMP180;53212;52.112;5.144;2023-04-01T00:52:07;99034.20;;;9.90
66403;BMP180;53212;52.112;5.144;2023-04-01T00:54:34;99034.20;;;9.90
66403;BMP180;53212;52.112;5.144;2023-04-01T00:57:12;99035.00;;;9.80
66403;BMP180;53212;52.112;5.144;2023-04-01T00:59:50;99038.40;;;9.80
66403;BMP180;53212;52.112;5.144;2023-04-01T01:02:18;99038.60;;;9.80
66403;BMP180;53212;52.112;5.144;2023-04-01T01:04:44;99042.00;;;9.74
66403;BMP180;53212;52.112;5.144;2023-04-01T01:07:31;99037.80;;;9.70
66403;BMP180;53212;52.112;5.144;2023-04-01T01:10:19;99040.40;;;9.70
66403;BMP180;53212;52.112;5.144;2023-04-01T01:16:00;99035.20;;;9.70
66403;BMP180;53212;52.112;5.144;2023-04-01T01:27:28;99049.60;;;9.60
66403;BMP180;53212;52.112;5.144;2023-04-01T01:30:09;99045.60;;;9.60
66403;BMP180;53212;52.112;5.144;2023-04-01T01:33:13;99048.60;;;9.50
66403;BMP180;53212;52.112;5.144;2023-04-01T01:35:48;99050.00;;;9.52
66403;BMP180;53212;52.112;5.144;2023-04-01T01:38:18;99047.60;;;9.60
66403;BMP180;53212;52.112;5.144;2023-04-01T01:40:49;99046.20;;;9.50
66403;BMP180;53212;52.112;5.144;2023-04-01T01:43:22;99052.20;;;9.50
66403;BMP180;53212;52.112;5.144;2023-04-01T01:45:54;99055.00;;;9.50
66403;BMP180;53212;52.112;5.144;2023-04-01T01:48:21;99047.40;;;9.50
66403;BMP180;53212;52.112;5.144;2023-04-01T01:50:48;99052.80;;;9.50
66403;BMP180;53212;52.112;5.144;2023-04-01T01:53:15;99056.20;;;9.40
66403;BMP180;53212;52.112;5.144;2023-04-01T01:55:44;99054.20;;;9.40
66403;BMP180;53212;52.112;5.144;2023-04-01T01:58:25;99051.60;;;9.40
66403;BMP180;53212;52.112;5.144;2023-04-01T02:00:57;99055.60;;;9.40
66403;BMP180;53212;52.112;5.144;2023-04-01T02:03:25;99057.80;;;9.36
66403;BMP180;53212;52.112;5.144;2023-04-01T02:05:54;99058.60;;;9.40
66403;BMP180;53212;52.112;5.144;2023-04-01T02:08:36;99061.00;;;9.30
66403;BMP180;53212;52.112;5.144;2023-04-01T02:11:07;99063.20;;;9.30
66403;BMP180;53212;52.112;5.144;2023-04-01T02:13:53;99068.00;;;9.38
66403;BMP180;53212;52.112;5.144;2023-04-01T02:16:31;99067.40;;;9.40
66403;BMP180;53212;52.112;5.144;2023-04-01T02:18:58;99066.00;;;9.40
66403;BMP180;53212;52.112;5.144;2023-04-01T02:21:30;99071.80;;;9.40
66403;BMP180;53212;52.112;5.144;2023-04-01T02:23:58;99080.20;;;9.32
66403;BMP180;53212;52.112;5.144;2023-04-01T02:26:26;99081.40;;;9.30
66403;BMP180;53212;52.112;5.144;2023-04-01T02:28:53;99082.40;;;9.30
66403;BMP180;53212;52.112;5.144;2023-04-01T02:31:19;99080.60;;;9.30
66403;BMP180;53212;52.112;5.144;2023-04-01T02:33:46;99081.60;;;9.30
66403;BMP180;53212;52.112;5.144;2023-04-01T02:36:13;99075.80;;;9.30
66403;BMP180;53212;52.112;5.144;2023-04-01T02:38:41;99084.40;;;9.30
66403;BMP180;53212;52.112;5.144;2023-04-01T02:41:08;99082.60;;;9.30
66403;BMP180;53212;52.112;5.144;2023-04-01T02:43:34;99081.20;;;9.26
66403;BMP180;53212;52.112;5.144;2023-04-01T02:45:59;99085.40;;;9.22
66403;BMP180;53212;52.112;5.144;2023-04-01T02:48:26;99087.80;;;9.20
66403;BMP180;53212;52.112;5.144;2023-04-01T02:50:51;99090.00;;;9.20
66403;BMP180;53212;52.112;5.144;2023-04-01T02:53:17;99094.60;;;9.20
66403;BMP180;53212;52.112;5.144;2023-04-01T02:55:42;99092.40;;;9.28
66403;BMP180;53212;52.112;5.144;2023-04-01T02:58:08;99090.20;;;9.28
66403;BMP180;53212;52.112;5.144;2023-04-01T03:00:33;99094.20;;;9.24
66403;BMP180;53212;52.112;5.144;2023-04-01T03:02:59;99103.20;;;9.20
66403;BMP180;53212;52.112;5.144;2023-04-01T03:05:25;99111.20;;;9.20
66403;BMP180;53212;52.112;5.144;2023-04-01T03:07:51;99112.00;;;9.20
66403;BMP180;53212;52.112;5.144;2023-04-01T03:10:16;99109.60;;;9.20
66403;BMP180;53212;52.112;5.144;2023-04-01T03:12:42;99116.00;;;9.20
66403;BMP180;53212;52.112;5.144;2023-04-01T03:15:13;99121.80;;;9.20
66403;BMP180;53212;52.112;5.144;2023-04-01T03:17:41;99124.60;;;9.20
66403;BMP180;53212;52.112;5.144;2023-04-01T03:20:09;99125.60;;;9.20
66403;BMP180;53212;52.112;5.144;2023-04-01T03:22:36;99128.80;;;9.22
66403;BMP180;53212;52.112;5.144;2023-04-01T03:25:04;99136.00;;;9.26
66403;BMP180;53212;52.112;5.144;2023-04-01T03:27:30;99137.60;;;9.30
66403;BMP180;53212;52.112;5.144;2023-04-01T03:29:55;99138.40;;;9.30
66403;BMP180;53212;52.112;5.144;2023-04-01T03:32:20;99144.40;;;9.30
66403;BMP180;53212;52.112;5.144;2023-04-01T03:34:46;99142.80;;;9.38
66403;BMP180;53212;52.112;5.144;2023-04-01T03:37:12;99150.60;;;9.40
66403;BMP180;53212;52.112;5.144;2023-04-01T03:39:37;99151.80;;;9.40
66403;BMP180;53212;52.112;5.144;2023-04-01T03:42:03;99152.40;;;9.40
66403;BMP180;53212;52.112;5.144;2023-04-01T03:44:31;99155.40;;;9.40
66403;BMP180;53212;52.112;5.144;2023-04-01T03:46:57;99154.40;;;9.40
66403;BMP180;53212;52.112;5.144;2023-04-01T03:49:23;99164.00;;;9.40
66403;BMP180;53212;52.112;5.144;2023-04-01T03:51:48;99168.40;;;9.40
66403;BMP180;53212;52.112;5.144;2023-04-01T03:54:14;99169.80;;;9.48
66403;BMP180;53212;52.112;5.144;2023-04-01T03:56:39;99174.60;;;9.50
66403;BMP180;53212;52.112;5.144;2023-04-01T03:59:08;99174.60;;;9.50
66403;BMP180;53212;52.112;5.144;2023-04-01T04:01:34;99181.00;;;9.50
66403;BMP180;53212;52.112;5.144;2023-04-01T04:04:01;99188.20;;;9.50
66403;BMP180;53212;52.112;5.144;2023-04-01T04:06:27;99190.00;;;9.58
66403;BMP180;53212;52.112;5.144;2023-04-01T04:08:53;99189.00;;;9.60
66403;BMP180;53212;52.112;5.144;2023-04-01T04:11:19;99190.20;;;9.60
66403;BMP180;53212;52.112;5.144;2023-04-01T04:13:45;99194.80;;;9.60
66403;BMP180;53212;52.112;5.144;2023-04-01T04:16:14;99201.20;;;9.70
66403;BMP180;53212;52.112;5.144;2023-04-01T04:18:39;99204.20;;;9.70
66403;BMP180;53212;52.112;5.144;2023-04-01T04:21:05;99208.80;;;9.78
66403;BMP180;53212;52.112;5.144;2023-04-01T04:23:31;99210.20;;;9.80
66403;BMP180;53212;52.112;5.144;2023-04-01T04:26:10;99223.20;;;9.80
66403;BMP180;53212;52.112;5.144;2023-04-01T04:28:36;99224.60;;;9.80
66403;BMP180;53212;52.112;5.144;2023-04-01T04:31:02;99229.80;;;9.90
66403;BMP180;53212;52.112;5.144;2023-04-01T04:33:29;99234.00;;;9.90
66403;BMP180;53212;52.112;5.144;2023-04-01T04:35:56;99235.80;;;9.90
66403;BMP180;53212;52.112;5.144;2023-04-01T04:38:22;99235.20;;;9.94
66403;BMP180;53212;52.112;5.144;2023-04-01T04:40:48;99242.00;;;9.98
66403;BMP180;53212;52.112;5.144;2023-04-01T04:43:15;99243.80;;;9.90
66403;BMP180;53212;52.112;5.144;2023-04-01T04:45:42;99252.20;;;9.90
66403;BMP180;53212;52.112;5.144;2023-04-01T04:48:09;99251.80;;;9.90
66403;BMP180;53212;52.112;5.144;2023-04-01T04:50:35;99257.80;;;9.90
66403;BMP180;53212;52.112;5.144;2023-04-01T04:53:02;99260.20;;;9.90
66403;BMP180;53212;52.112;5.144;2023-04-01T04:55:27;99270.00;;;9.82
66403;BMP180;53212;52.112;5.144;2023-04-01T04:57:53;99273.60;;;9.80
66403;BMP180;53212;52.112;5.144;2023-04-01T05:00:18;99277.20;;;9.80
66403;BMP180;53212;52.112;5.144;2023-04-01T05:02:44;99282.20;;;9.80
66403;BMP180;53212;52.112;5.144;2023-04-01T05:05:09;99286.00;;;9.80
66403;BMP180;53212;52.112;5.144;2023-04-01T05:07:35;99292.80;;;9.86
66403;BMP180;53212;52.112;5.144;2023-04-01T05:10:01;99296.00;;;9.90
66403;BMP180;53212;52.112;5.144;2023-04-01T05:12:26;99296.00;;;9.88
66403;BMP180;53212;52.112;5.144;2023-04-01T05:14:52;99306.20;;;9.88
66403;BMP180;53212;52.112;5.144;2023-04-01T05:17:17;99309.80;;;9.84
66403;BMP180;53212;52.112;5.144;2023-04-01T05:19:43;99312.40;;;9.88
66403;BMP180;53212;52.112;5.144;2023-04-01T05:22:08;99315.60;;;9.80
66403;BMP180;53212;52.112;5.144;2023-04-01T05:24:33;99321.40;;;9.80
66403;BMP180;53212;52.112;5.144;2023-04-01T05:26:59;99321.20;;;9.80
66403;BMP180;53212;52.112;5.144;2023-04-01T05:29:26;99325.00;;;9.86
66403;BMP180;53212;52.112;5.144;2023-04-01T05:31:51;99330.60;;;9.90
66403;BMP180;53212;52.112;5.144;2023-04-01T05:34:17;99336.00;;;9.90
66403;BMP180;53212;52.112;5.144;2023-04-01T05:36:43;99336.00;;;9.90
66403;BMP180;53212;52.112;5.144;2023-04-01T05:39:09;99337.80;;;9.90
66403;BMP180;53212;52.112;5.144;2023-04-01T05:41:36;99346.40;;;9.90
66403;BMP180;53212;52.112;5.144;2023-04-01T05:44:02;99347.00;;;9.90
66403;BMP180;53212;52.112;5.144;2023-04-01T05:46:27;99352.00;;;9.90
66403;BMP180;53212;52.112;5.144;2023-04-01T05:48:53;99356.40;;;9.90
66403;BMP180;53212;52.112;5.144;2023-04-01T05:51:18;99360.20;;;9.90
66403;BMP180;53212;52.112;5.144;2023-04-01T05:53:44;99361.80;;;9.90
66403;BMP180;53212;52.112;5.144;2023-04-01T05:56:09;99356.80;;;9.90
66403;BMP180;53212;52.112;5.144;2023-04-01T05:58:36;99365.80;;;9.90
66403;BMP180;53212;52.112;5.144;2023-04-01T06:01:10;99364.60;;;9.84
66403;BMP180;53212;52.112;5.144;2023-04-01T06:03:36;99368.40;;;9.80
66403;BMP180;53212;52.112;5.144;2023-04-01T06:06:02;99368.00;;;9.80
66403;BMP180;53212;52.112;5.144;2023-04-01T06:08:31;99373.80;;;9.80
66403;BMP180;53212;52.112;5.144;2023-04-01T06:17:59;99388.40;;;9.80
66403;BMP180;53212;52.112;5.144;2023-04-01T06:20:55;99392.60;;;9.90
66403;BMP180;53212;52.112;5.144;2023-04-01T06:23:43;99393.80;;;9.90
66403;BMP180;53212;52.112;5.144;2023-04-01T06:35:26;99416.80;;;9.90
66403;BMP180;53212;52.112;5.144;2023-04-01T06:38:20;99423.20;;;9.90
66403;BMP180;53212;52.112;5.144;2023-04-01T06:41:15;99436.20;;;9.90
66403;BMP180;53212;52.112;5.144;2023-04-01T06:46:49;99440.40;;;9.80
66403;BMP180;53212;52.112;5.144;2023-04-01T06:49:59;99452.20;;;9.80
66403;BMP180;53212;52.112;5.144;2023-04-01T06:55:36;99453.80;;;9.80
66403;BMP180;53212;52.112;5.144;2023-04-01T06:58:07;99456.00;;;9.80
66403;BMP180;53212;52.112;5.144;2023-04-01T07:00:39;99460.00;;;9.80
66403;BMP180;53212;52.112;5.144;2023-04-01T07:05:42;99469.40;;;9.80
66403;BMP180;53212;52.112;5.144;2023-04-01T07:08:17;99471.00;;;9.80
66403;BMP180;53212;52.112;5.144;2023-04-01T07:11:02;99473.40;;;9.80
66403;BMP180;53212;52.112;5.144;2023-04-01T07:13:51;99474.80;;;9.80
66403;BMP180;53212;52.112;5.144;2023-04-01T07:16:33;99486.00;;;9.80
66403;BMP180;53212;52.112;5.144;2023-04-01T07:19:34;99490.20;;;9.80
66403;BMP180;53212;52.112;5.144;2023-04-01T07:22:14;99496.40;;;9.80
66403;BMP180;53212;52.112;5.144;2023-04-01T07:24:44;99500.00;;;9.80
66403;BMP180;53212;52.112;5.144;2023-04-01T07:27:12;99507.00;;;9.80
66403;BMP180;53212;52.112;5.144;2023-04-01T07:29:38;99507.20;;;9.80
66403;BMP180;53212;52.112;5.144;2023-04-01T07:38:34;99521.80;;;9.90
66403;BMP180;53212;52.112;5.144;2023-04-01T07:44:31;99526.20;;;10.00
66403;BMP180;53212;52.112;5.144;2023-04-01T07:55:43;99543.80;;;10.10
66403;BMP180;53212;52.112;5.144;2023-04-01T07:58:39;99548.80;;;10.20
66403;BMP180;53212;52.112;5.144;2023-04-01T08:01:43;99556.60;;;10.20
66403;BMP180;53212;52.112;5.144;2023-04-01T08:07:29;99566.40;;;10.30
66403;BMP180;53212;52.112;5.144;2023-04-01T08:13:24;99578.80;;;10.30
66403;BMP180;53212;52.112;5.144;2023-04-01T08:16:20;99587.20;;;10.40
66403;BMP180;53212;52.112;5.144;2023-04-01T08:21:54;99596.60;;;10.40
66403;BMP180;53212;52.112;5.144;2023-04-01T08:24:42;99593.80;;;10.40
66403;BMP180;53212;52.112;5.144;2023-04-01T08:33:17;99604.00;;;10.40
66403;BMP180;53212;52.112;5.144;2023-04-01T08:36:05;99612.60;;;10.40
66403;BMP180;53212;52.112;5.144;2023-04-01T08:39:01;99615.20;;;10.40
66403;BMP180;53212;52.112;5.144;2023-04-01T08:42:07;99622.00;;;10.36
66403;BMP180;53212;52.112;5.144;2023-04-01T08:56:23;99637.00;;;10.60
66403;BMP180;53212;52.112;5.144;2023-04-01T09:11:12;99653.80;;;11.02
66403;BMP180;53212;52.112;5.144;2023-04-01T09:22:45;99672.20;;;11.40
66403;BMP180;53212;52.112;5.144;2023-04-01T09:28:19;99675.80;;;11.50
66403;BMP180;53212;52.112;5.144;2023-04-01T09:36:32;99682.60;;;11.64
66403;BMP180;53212;52.112;5.144;2023-04-01T09:47:34;99693.80;;;11.98
66403;BMP180;53212;52.112;5.144;2023-04-01T09:53:57;99699.20;;;11.76
66403;BMP180;53212;52.112;5.144;2023-04-01T09:57:08;99700.40;;;11.70
66403;BMP180;53212;52.112;5.144;2023-04-01T10:03:24;99709.60;;;12.00
66403;BMP180;53212;52.112;5.144;2023-04-01T10:12:08;99714.80;;;12.60
66403;BMP180;53212;52.112;5.144;2023-04-01T10:15:07;99727.80;;;12.62
66403;BMP180;53212;52.112;5.144;2023-04-01T10:22:59;99731.80;;;12.42
66403;BMP180;53212;52.112;5.144;2023-04-01T10:28:33;99733.40;;;12.30
66403;BMP180;53212;52.112;5.144;2023-04-01T10:34:26;99745.20;;;12.02
66403;BMP180;53212;52.112;5.144;2023-04-01T10:36:58;99743.80;;;12.00
66403;BMP180;53212;52.112;5.144;2023-04-01T10:43:16;99755.80;;;12.22
66403;BMP180;53212;52.112;5.144;2023-04-01T10:49:01;99759.20;;;12.10
66403;BMP180;53212;52.112;5.144;2023-04-01T11:10:25;99767.40;;;13.60
66403;BMP180;53212;52.112;5.144;2023-04-01T11:13:25;99763.20;;;13.60
66403;BMP180;53212;52.112;5.144;2023-04-01T11:16:18;99775.20;;;13.76
66403;BMP180;53212;52.112;5.144;2023-04-01T11:21:46;99780.80;;;13.80
66403;BMP180;53212;52.112;5.144;2023-04-01T11:32:55;99793.80;;;13.50
66403;BMP180;53212;52.112;5.144;2023-04-01T11:36:02;99796.20;;;13.48
66403;BMP180;53212;52.112;5.144;2023-04-01T11:41:50;99805.40;;;13.60
66403;BMP180;53212;52.112;5.144;2023-04-01T11:44:19;99811.80;;;13.52
66403;BMP180;53212;52.112;5.144;2023-04-01T11:47:13;99815.20;;;13.50
66403;BMP180;53212;52.112;5.144;2023-04-01T11:50:47;99820.80;;;13.48
66403;BMP180;53212;52.112;5.144;2023-04-01T11:53:57;99826.40;;;13.40
66403;BMP180;53212;52.112;5.144;2023-04-01T12:03:07;99838.20;;;13.20
66403;BMP180;53212;52.112;5.144;2023-04-01T12:11:51;99849.80;;;13.30
66403;BMP180;53212;52.112;5.144;2023-04-01T12:14:30;99850.60;;;13.20
66403;BMP180;53212;52.112;5.144;2023-04-01T12:17:26;99862.00;;;13.02
66403;BMP180;53212;52.112;5.144;2023-04-01T12:25:54;99869.20;;;12.90
66403;BMP180;53212;52.112;5.144;2023-04-01T12:28:41;99878.20;;;12.88
66403;BMP180;53212;52.112;5.144;2023-04-01T12:37:06;99886.60;;;12.66
66403;BMP180;53212;52.112;5.144;2023-04-01T12:45:28;99898.40;;;12.40
66403;BMP180;53212;52.112;5.144;2023-04-01T12:51:36;99906.40;;;12.30
66403;BMP180;53212;52.112;5.144;2023-04-01T13:06:19;99924.00;;;12.78
66403;BMP180;53212;52.112;5.144;2023-04-01T13:09:46;99926.60;;;12.92
66403;BMP180;53212;52.112;5.144;2023-04-01T13:16:03;99928.80;;;13.60
66403;BMP180;53212;52.112;5.144;2023-04-01T13:18:41;99933.40;;;13.98
66403;BMP180;53212;52.112;5.144;2023-04-01T13:21:21;99929.80;;;14.10
66403;BMP180;53212;52.112;5.144;2023-04-01T13:24:09;99936.60;;;14.10
66403;BMP180;53212;52.112;5.144;2023-04-01T13:26:57;99944.40;;;14.00
66403;BMP180;53212;52.112;5.144;2023-04-01T13:29:59;99950.60;;;13.74
66403;BMP180;53212;52.112;5.144;2023-04-01T13:41:39;99970.20;;;12.70
66403;BMP180;53212;52.112;5.144;2023-04-01T13:44:17;99975.20;;;12.50
66403;BMP180;53212;52.112;5.144;2023-04-01T13:53:13;99980.00;;;12.30
66403;BMP180;53212;52.112;5.144;2023-04-01T13:56:00;99989.00;;;12.58
66403;BMP180;53212;52.112;5.144;2023-04-01T13:58:49;99992.80;;;12.54
66403;BMP180;53212;52.112;5.144;2023-04-01T14:08:17;99993.40;;;11.90
66403;BMP180;53212;52.112;5.144;2023-04-01T14:10:43;100000.60;;;11.80
66403;BMP180;53212;52.112;5.144;2023-04-01T14:13:37;100005.60;;;11.80
66403;BMP180;53212;52.112;5.144;2023-04-01T14:19:20;100017.20;;;11.70
66403;BMP180;53212;52.112;5.144;2023-04-01T14:22:03;100013.00;;;11.70
66403;BMP180;53212;52.112;5.144;2023-04-01T14:30:58;100032.20;;;11.80
66403;BMP180;53212;52.112;5.144;2023-04-01T14:34:18;100033.40;;;11.90
66403;BMP180;53212;52.112;5.144;2023-04-01T14:48:30;100058.60;;;11.80
66403;BMP180;53212;52.112;5.144;2023-04-01T14:51:28;100062.60;;;11.70
66403;BMP180;53212;52.112;5.144;2023-04-01T14:54:34;100066.20;;;11.54
66403;BMP180;53212;52.112;5.144;2023-04-01T15:00:17;100075.40;;;11.40
66403;BMP180;53212;52.112;5.144;2023-04-01T15:03:08;100083.00;;;11.40
66403;BMP180;53212;52.112;5.144;2023-04-01T15:05:51;100080.00;;;11.30
66403;BMP180;53212;52.112;5.144;2023-04-01T15:11:42;100092.40;;;11.30
66403;BMP180;53212;52.112;5.144;2023-04-01T15:14:31;100106.60;;;11.26
66403;BMP180;53212;52.112;5.144;2023-04-01T15:23:20;100117.80;;;11.10
66403;BMP180;53212;52.112;5.144;2023-04-01T15:42:26;100156.80;;;11.00
66403;BMP180;53212;52.112;5.144;2023-04-01T15:50:48;100176.20;;;10.90
66403;BMP180;53212;52.112;5.144;2023-04-01T15:56:40;100187.60;;;10.80
66403;BMP180;53212;52.112;5.144;2023-04-01T16:02:53;100198.20;;;10.74
66403;BMP180;53212;52.112;5.144;2023-04-01T16:21:22;100231.40;;;10.60
66403;BMP180;53212;52.112;5.144;2023-04-01T16:23:59;100237.80;;;10.60
66403;BMP180;53212;52.112;5.144;2023-04-01T16:26:54;100234.80;;;10.54
66403;BMP180;53212;52.112;5.144;2023-04-01T16:29:35;100243.40;;;10.50
66403;BMP180;53212;52.112;5.144;2023-04-01T16:40:43;100258.60;;;10.40
66403;BMP180;53212;52.112;5.144;2023-04-01T16:46:34;100271.00;;;10.40
66403;BMP180;53212;52.112;5.144;2023-04-01T17:02:37;100309.20;;;10.30
66403;BMP180;53212;52.112;5.144;2023-04-01T17:05:11;100320.00;;;10.22
66403;BMP180;53212;52.112;5.144;2023-04-01T17:08:01;100325.60;;;10.20
66403;BMP180;53212;52.112;5.144;2023-04-01T17:10:46;100331.20;;;10.20
66403;BMP180;53212;52.112;5.144;2023-04-01T17:20:18;100354.20;;;10.00
66403;BMP180;53212;52.112;5.144;2023-04-01T17:23:00;100363.80;;;9.90
66403;BMP180;53212;52.112;5.144;2023-04-01T17:26:24;100372.00;;;9.88
66403;BMP180;53212;52.112;5.144;2023-04-01T17:29:03;100373.40;;;9.80
66403;BMP180;53212;52.112;5.144;2023-04-01T17:31:42;100384.00;;;9.80
66403;BMP180;53212;52.112;5.144;2023-04-01T17:34:35;100386.00;;;9.72
66403;BMP180;53212;52.112;5.144;2023-04-01T17:37:46;100393.60;;;9.70
66403;BMP180;53212;52.112;5.144;2023-04-01T17:40:50;100401.80;;;9.70
66403;BMP180;53212;52.112;5.144;2023-04-01T17:43:44;100409.80;;;9.60
66403;BMP180;53212;52.112;5.144;2023-04-01T17:46:37;100420.20;;;9.60
66403;BMP180;53212;52.112;5.144;2023-04-01T17:50:08;100420.40;;;9.50
66403;BMP180;53212;52.112;5.144;2023-04-01T17:55:46;100435.20;;;9.50
66403;BMP180;53212;52.112;5.144;2023-04-01T17:58:59;100444.40;;;9.40
66403;BMP180;53212;52.112;5.144;2023-04-01T18:08:17;100460.60;;;9.40
66403;BMP180;53212;52.112;5.144;2023-04-01T18:25:40;100508.40;;;9.48
66403;BMP180;53212;52.112;5.144;2023-04-01T18:36:35;100539.00;;;9.28
66403;BMP180;53212;52.112;5.144;2023-04-01T18:39:09;100540.80;;;9.22
66403;BMP180;53212;52.112;5.144;2023-04-01T18:41:50;100550.60;;;9.20
66403;BMP180;53212;52.112;5.144;2023-04-01T18:47:55;100565.00;;;9.10
66403;BMP180;53212;52.112;5.144;2023-04-01T18:50:37;100572.80;;;9.10
66403;BMP180;53212;52.112;5.144;2023-04-01T18:53:29;100575.80;;;9.10
66403;BMP180;53212;52.112;5.144;2023-04-01T18:59:25;100593.20;;;9.02
66403;BMP180;53212;52.112;5.144;2023-04-01T19:02:34;100597.60;;;9.00
66403;BMP180;53212;52.112;5.144;2023-04-01T19:05:21;100601.40;;;9.00
66403;BMP180;53212;52.112;5.144;2023-04-01T19:07:53;100613.20;;;8.90
66403;BMP180;53212;52.112;5.144;2023-04-01T19:11:16;100615.40;;;8.90
66403;BMP180;53212;52.112;5.144;2023-04-01T19:17:07;100632.20;;;8.80
66403;BMP180;53212;52.112;5.144;2023-04-01T19:23:53;100643.60;;;8.80
66403;BMP180;53212;52.112;5.144;2023-04-01T19:26:03;100657.60;;;8.80
66403;BMP180;53212;52.112;5.144;2023-04-01T19:38:37;100686.00;;;8.70
66403;BMP180;53212;52.112;5.144;2023-04-01T19:41:34;100691.20;;;8.60
66403;BMP180;53212;52.112;5.144;2023-04-01T19:46:55;100699.20;;;8.60
66403;BMP180;53212;52.112;5.144;2023-04-01T19:50:19;100706.20;;;8.50
66403;BMP180;53212;52.112;5.144;2023-04-01T19:52:47;100713.60;;;8.50
66403;BMP180;53212;52.112;5.144;2023-04-01T19:56:01;100717.80;;;8.42
66403;BMP180;53212;52.112;5.144;2023-04-01T20:01:27;100733.00;;;8.40
66403;BMP180;53212;52.112;5.144;2023-04-01T20:03:58;100739.00;;;8.34
66403;BMP180;53212;52.112;5.144;2023-04-01T20:13:23;100754.80;;;8.30
66403;BMP180;53212;52.112;5.144;2023-04-01T20:16:06;100766.80;;;8.30
66403;BMP180;53212;52.112;5.144;2023-04-01T20:18:58;100782.00;;;8.20
66403;BMP180;53212;52.112;5.144;2023-04-01T20:21:29;100773.80;;;8.20
66403;BMP180;53212;52.112;5.144;2023-04-01T20:24:05;100778.40;;;8.10
66403;BMP180;53212;52.112;5.144;2023-04-01T20:26:36;100788.00;;;8.10
66403;BMP180;53212;52.112;5.144;2023-04-01T20:29:34;100784.20;;;8.10
66403;BMP180;53212;52.112;5.144;2023-04-01T20:35:12;100799.40;;;8.10
66403;BMP180;53212;52.112;5.144;2023-04-01T20:37:50;100803.40;;;8.04
66403;BMP180;53212;52.112;5.144;2023-04-01T20:40:31;100817.00;;;8.00
66403;BMP180;53212;52.112;5.144;2023-04-01T20:51:21;100846.20;;;7.90
66403;BMP180;53212;52.112;5.144;2023-04-01T20:57:00;100860.80;;;7.90
66403;BMP180;53212;52.112;5.144;2023-04-01T21:08:40;100873.60;;;7.80
66403;BMP180;53212;52.112;5.144;2023-04-01T21:23:20;100901.00;;;7.70
66403;BMP180;53212;52.112;5.144;2023-04-01T21:26:22;100910.80;;;7.70
66403;BMP180;53212;52.112;5.144;2023-04-01T21:46:26;100948.80;;;7.50
66403;BMP180;53212;52.112;5.144;2023-04-01T21:55:37;100969.80;;;7.50
66403;BMP180;53212;52.112;5.144;2023-04-01T21:58:39;100965.20;;;7.50
66403;BMP180;53212;52.112;5.144;2023-04-01T22:13:04;100992.00;;;7.40
66403;BMP180;53212;52.112;5.144;2023-04-01T22:18:33;101009.40;;;7.40
66403;BMP180;53212;52.112;5.144;2023-04-01T22:21:05;101014.00;;;7.40
66403;BMP180;53212;52.112;5.144;2023-04-01T22:29:16;101026.20;;;7.36
66403;BMP180;53212;52.112;5.144;2023-04-01T22:31:50;101032.80;;;7.36
66403;BMP180;53212;52.112;5.144;2023-04-01T22:37:36;101041.20;;;7.30
66403;BMP180;53212;52.112;5.144;2023-04-01T22:40:22;101047.00;;;7.30
66403;BMP180;53212;52.112;5.144;2023-04-01T22:43:04;101047.80;;;7.20
66403;BMP180;53212;52.112;5.144;2023-04-01T22:48:49;101058.00;;;7.20
66403;BMP180;53212;52.112;5.144;2023-04-01T22:51:48;101072.40;;;7.10
66403;BMP180;53212;52.112;5.144;2023-04-01T22:54:44;101080.00;;;7.10
66403;BMP180;53212;52.112;5.144;2023-04-01T23:00:28;101085.00;;;7.06
66403;BMP180;53212;52.112;5.144;2023-04-01T23:03:30;101093.80;;;7.00
66403;BMP180;53212;52.112;5.144;2023-04-01T23:06:02;101102.40;;;7.00
66403;BMP180;53212;52.112;5.144;2023-04-01T23:11:32;101105.60;;;7.00
66403;BMP180;53212;52.112;5.144;2023-04-01T23:17:31;101114.80;;;7.00
66403;BMP180;53212;52.112;5.144;2023-04-01T23:20:42;101120.80;;;7.00
66403;BMP180;53212;52.112;5.144;2023-04-01T23:23:29;101127.60;;;6.90
66403;BMP180;53212;52.112;5.144;2023-04-01T23:26:10;101136.40;;;6.90
66403;BMP180;53212;52.112;5.144;2023-04-01T23:28:51;101140.00;;;6.88
66403;BMP180;53212;52.112;5.144;2023-04-01T23:31:37;101145.00;;;6.90
66403;BMP180;53212;52.112;5.144;2023-04-01T23:36:44;101148.20;;;6.90
66403;BMP180;53212;52.112;5.144;2023-04-01T23:39:24;101159.40;;;6.90
66403;BMP180;53212;52.112;5.144;2023-04-01T23:41:55;101153.00;;;6.90
66403;BMP180;53212;52.112;5.144;2023-04-01T23:44:24;101161.00;;;6.90
66403;BMP180;53212;52.112;5.144;2023-04-01T23:46:51;101163.60;;;6.90
66403;BMP180;53212;52.112;5.144;2023-04-01T23:49:21;101166.80;;;6.90
66403;BMP180;53212;52.112;5.144;2023-04-01T23:52:17;101173.60;;;6.88
66403;BMP180;53212;52.112;5.144;2023-04-01T23:57:35;101185.00;;;6.86
